NOZ7544 BIKF-ENSB
Flight info
| Callsign | NOZ7544 |
|---|---|
| Flight time | N/A |
| Altitude | 35000 |
| Route | LUTER3C LUTER DCT 66N010W 73N000W/N0464F350 DCT INPAR |
| Aircraft | B738/M-SDE2E3FGHIRWXY/LB1 |
Departure
| Time | 2026-04-27 12:30 |
|---|---|
| Airport | Keflavik International Airport (BIKF) |
Arrival
| Time | N/A |
|---|---|
| Airport | Svalbard Airport, Longyear (ENSB) |
| Time | Latitude | Longitude | Altitude | Speed | Heading |
|---|---|---|---|---|---|
| 2026-04-27 11:53 | 63.99288 | -22.62308 | 158 ft | 0 kts | 359° |
| 2026-04-27 12:20 | 63.99286 | -22.62308 | 158 ft | 2 kts | 359° |
| 2026-04-27 12:20 | 63.99270 | -22.62308 | 160 ft | 2 kts | 359° |
| 2026-04-27 12:20 | 63.99253 | -22.62307 | 153 ft | 2 kts | 359° |
| 2026-04-27 12:20 | 63.99237 | -22.62307 | 161 ft | 2 kts | 360° |
| 2026-04-27 12:21 | 63.99220 | -22.62307 | 162 ft | 2 kts | 1° |
| 2026-04-27 12:21 | 63.99204 | -22.62309 | 163 ft | 2 kts | 11° |
| 2026-04-27 12:21 | 63.99189 | -22.62324 | 160 ft | 2 kts | 55° |
| 2026-04-27 12:21 | 63.99182 | -22.62358 | 160 ft | 2 kts | 71° |
| 2026-04-27 12:22 | 63.99178 | -22.62394 | 160 ft | 2 kts | 77° |
| 2026-04-27 12:22 | 63.99175 | -22.62430 | 160 ft | 2 kts | 82° |
| 2026-04-27 12:22 | 63.99174 | -22.62446 | 160 ft | 0 kts | 85° |
| 2026-04-27 12:26 | 63.99173 | -22.62439 | 160 ft | 2 kts | 92° |
| 2026-04-27 12:26 | 63.99173 | -22.62349 | 160 ft | 9 kts | 91° |
| 2026-04-27 12:26 | 63.99171 | -22.62144 | 160 ft | 16 kts | 91° |
| 2026-04-27 12:27 | 63.99171 | -22.61848 | 161 ft | 20 kts | 89° |
| 2026-04-27 12:27 | 63.99171 | -22.61530 | 162 ft | 22 kts | 90° |
| 2026-04-27 12:27 | 63.99173 | -22.61169 | 164 ft | 23 kts | 89° |
| 2026-04-27 12:27 | 63.99172 | -22.60813 | 165 ft | 20 kts | 90° |
| 2026-04-27 12:28 | 63.99172 | -22.60762 | 165 ft | 0 kts | 89° |
| 2026-04-27 12:28 | 63.99172 | -22.60749 | 165 ft | 4 kts | 90° |
| 2026-04-27 12:29 | 63.99171 | -22.60634 | 166 ft | 10 kts | 96° |
| 2026-04-27 12:29 | 63.99102 | -22.60546 | 165 ft | 15 kts | 180° |
| 2026-04-27 12:29 | 63.98950 | -22.60546 | 160 ft | 44 kts | 180° |
| 2026-04-27 12:29 | 63.98403 | -22.60545 | 151 ft | 110 kts | 180° |
| 2026-04-27 12:30 | 63.97449 | -22.60554 | 211 ft | 159 kts | 178° |
| 2026-04-27 12:30 | 63.96294 | -22.60582 | 832 ft | 166 kts | 179° |
| 2026-04-27 12:30 | 63.95204 | -22.60367 | 2025 ft | 153 kts | 160° |
| 2026-04-27 12:30 | 63.94369 | -22.58501 | 2445 ft | 195 kts | 123° |
| 2026-04-27 12:31 | 63.93834 | -22.55481 | 2784 ft | 215 kts | 120° |
| 2026-04-27 12:31 | 63.93284 | -22.52224 | 3308 ft | 226 kts | 119° |
| 2026-04-27 12:31 | 63.92683 | -22.48752 | 3651 ft | 247 kts | 120° |
| 2026-04-27 12:31 | 63.92021 | -22.45037 | 4265 ft | 259 kts | 120° |
| 2026-04-27 12:32 | 63.91336 | -22.41228 | 5124 ft | 263 kts | 121° |
| 2026-04-27 12:32 | 63.90631 | -22.37387 | 5787 ft | 271 kts | 121° |
| 2026-04-27 12:32 | 63.90023 | -22.33971 | 5983 ft | 274 kts | 121° |
| 2026-04-27 12:32 | 63.89802 | -22.32733 | 5988 ft | 274 kts | 122° |
| 2026-04-27 12:33 | 63.89762 | -22.32516 | 5992 ft | 274 kts | 122° |
| 2026-04-27 12:33 | 63.89042 | -22.28609 | 6018 ft | 274 kts | 121° |
| 2026-04-27 12:33 | 63.88259 | -22.24670 | 6023 ft | 272 kts | 126° |
| 2026-04-27 12:34 | 63.87439 | -22.20777 | 6031 ft | 276 kts | 122° |
| 2026-04-27 12:34 | 63.86714 | -22.16734 | 6047 ft | 278 kts | 121° |
| 2026-04-27 12:34 | 63.85980 | -22.12656 | 6051 ft | 280 kts | 122° |
| 2026-04-27 12:34 | 63.85224 | -22.08578 | 6044 ft | 281 kts | 122° |
| 2026-04-27 12:35 | 63.84454 | -22.04490 | 6041 ft | 281 kts | 122° |
| 2026-04-27 12:35 | 63.83853 | -22.00226 | 6019 ft | 294 kts | 102° |
| 2026-04-27 12:35 | 63.84055 | -21.95530 | 6078 ft | 303 kts | 87° |
| 2026-04-27 12:35 | 63.84427 | -21.90889 | 6076 ft | 303 kts | 87° |
| 2026-04-27 12:36 | 63.84664 | -21.87856 | 6213 ft | 307 kts | 87° |
| 2026-04-27 12:36 | 63.84931 | -21.84392 | 6667 ft | 307 kts | 87° |
| 2026-04-27 12:36 | 63.85301 | -21.79583 | 6865 ft | 312 kts | 87° |
| 2026-04-27 12:36 | 63.85674 | -21.74763 | 6874 ft | 308 kts | 87° |
| 2026-04-27 12:37 | 63.86042 | -21.69986 | 6870 ft | 305 kts | 87° |
| 2026-04-27 12:37 | 63.86405 | -21.65258 | 6901 ft | 304 kts | 87° |
| 2026-04-27 12:37 | 63.86765 | -21.60522 | 6922 ft | 305 kts | 87° |
| 2026-04-27 12:37 | 63.87128 | -21.55758 | 6917 ft | 307 kts | 87° |
| 2026-04-27 12:38 | 63.87488 | -21.50983 | 6877 ft | 307 kts | 86° |
| 2026-04-27 12:38 | 63.87847 | -21.46212 | 6902 ft | 307 kts | 86° |
| 2026-04-27 12:38 | 63.88222 | -21.41446 | 6897 ft | 308 kts | 82° |
| 2026-04-27 12:38 | 63.89034 | -21.36864 | 7073 ft | 319 kts | 66° |
| 2026-04-27 12:39 | 63.90095 | -21.32402 | 7796 ft | 320 kts | 65° |
| 2026-04-27 12:39 | 63.91156 | -21.27957 | 8599 ft | 321 kts | 66° |
| 2026-04-27 12:39 | 63.92216 | -21.23455 | 9314 ft | 325 kts | 66° |
| 2026-04-27 12:39 | 63.93279 | -21.18875 | 9876 ft | 329 kts | 66° |
| 2026-04-27 12:40 | 63.94332 | -21.14291 | 9911 ft | 332 kts | 67° |
| 2026-04-27 12:40 | 63.95392 | -21.09651 | 9932 ft | 330 kts | 67° |
| 2026-04-27 12:40 | 63.96460 | -21.04947 | 9946 ft | 330 kts | 67° |
| 2026-04-27 12:40 | 63.97498 | -21.00368 | 9919 ft | 330 kts | 67° |
| 2026-04-27 12:41 | 63.98544 | -20.95739 | 9922 ft | 328 kts | 67° |
| 2026-04-27 12:41 | 63.99585 | -20.91112 | 9931 ft | 327 kts | 67° |
| 2026-04-27 12:41 | 64.00621 | -20.86501 | 9940 ft | 328 kts | 67° |
| 2026-04-27 12:41 | 64.01678 | -20.81771 | 10048 ft | 345 kts | 66° |
| 2026-04-27 12:42 | 64.02800 | -20.76733 | 10229 ft | 367 kts | 66° |
| 2026-04-27 12:42 | 64.03991 | -20.71390 | 10391 ft | 388 kts | 66° |
| 2026-04-27 12:42 | 64.05247 | -20.65756 | 10584 ft | 406 kts | 66° |
| 2026-04-27 12:42 | 64.06542 | -20.59929 | 11049 ft | 415 kts | 66° |
| 2026-04-27 12:43 | 64.07852 | -20.54024 | 11725 ft | 417 kts | 66° |
| 2026-04-27 12:43 | 64.09170 | -20.48066 | 12349 ft | 422 kts | 66° |
| 2026-04-27 12:43 | 64.10497 | -20.42042 | 12988 ft | 425 kts | 66° |
| 2026-04-27 12:43 | 64.11379 | -20.38028 | 13408 ft | 428 kts | 66° |
| 2026-04-27 12:44 | 64.12738 | -20.31899 | 13952 ft | 433 kts | 65° |
| 2026-04-27 12:44 | 64.14138 | -20.25772 | 14518 ft | 436 kts | 65° |
| 2026-04-27 12:44 | 64.15562 | -20.19610 | 15079 ft | 440 kts | 64° |
| 2026-04-27 12:44 | 64.17474 | -20.11345 | 15799 ft | 447 kts | 64° |
| 2026-04-27 12:45 | 64.18457 | -20.07078 | 16091 ft | 451 kts | 64° |
| 2026-04-27 12:45 | 64.19924 | -20.00686 | 16610 ft | 454 kts | 64° |
| 2026-04-27 12:45 | 64.21395 | -19.94245 | 17154 ft | 457 kts | 64° |
| 2026-04-27 12:45 | 64.22876 | -19.87730 | 17659 ft | 460 kts | 64° |
| 2026-04-27 12:46 | 64.24338 | -19.81271 | 18145 ft | 464 kts | 64° |
| 2026-04-27 12:46 | 64.25829 | -19.74657 | 18582 ft | 467 kts | 64° |
| 2026-04-27 12:46 | 64.27325 | -19.67998 | 19046 ft | 470 kts | 64° |
| 2026-04-27 12:46 | 64.28827 | -19.61292 | 19490 ft | 472 kts | 64° |
| 2026-04-27 12:47 | 64.30335 | -19.54540 | 19911 ft | 475 kts | 64° |
| 2026-04-27 12:47 | 64.31849 | -19.47740 | 20364 ft | 478 kts | 64° |
| 2026-04-27 12:47 | 64.33369 | -19.40892 | 20877 ft | 480 kts | 64° |
| 2026-04-27 12:47 | 64.34892 | -19.34005 | 21407 ft | 481 kts | 64° |
| 2026-04-27 12:48 | 64.36414 | -19.27102 | 21842 ft | 484 kts | 64° |
| 2026-04-27 12:48 | 64.37945 | -19.20133 | 22197 ft | 488 kts | 64° |
| 2026-04-27 12:48 | 64.39486 | -19.13108 | 22657 ft | 490 kts | 64° |
| 2026-04-27 12:48 | 64.41025 | -19.06073 | 23026 ft | 492 kts | 64° |
| 2026-04-27 12:49 | 64.42571 | -18.98963 | 23380 ft | 495 kts | 64° |
| 2026-04-27 12:49 | 64.44120 | -18.91812 | 23705 ft | 498 kts | 64° |
| 2026-04-27 12:49 | 64.45655 | -18.84702 | 24008 ft | 500 kts | 64° |
| 2026-04-27 12:49 | 64.47209 | -18.77483 | 24290 ft | 503 kts | 64° |
| 2026-04-27 12:50 | 64.48776 | -18.70180 | 24559 ft | 505 kts | 64° |
| 2026-04-27 12:50 | 64.50343 | -18.62855 | 24878 ft | 507 kts | 64° |
| 2026-04-27 12:50 | 64.51910 | -18.55506 | 25147 ft | 509 kts | 64° |
| 2026-04-27 12:50 | 64.53480 | -18.48122 | 25403 ft | 511 kts | 64° |
| 2026-04-27 12:51 | 64.55055 | -18.40682 | 25657 ft | 514 kts | 64° |
| 2026-04-27 12:51 | 64.56636 | -18.33190 | 25918 ft | 516 kts | 64° |
| 2026-04-27 12:51 | 64.58194 | -18.25777 | 26159 ft | 518 kts | 64° |
| 2026-04-27 12:51 | 64.59774 | -18.18231 | 26440 ft | 519 kts | 64° |
| 2026-04-27 12:52 | 64.61357 | -18.10645 | 26688 ft | 521 kts | 64° |
| 2026-04-27 12:52 | 64.62945 | -18.03006 | 26880 ft | 525 kts | 64° |
| 2026-04-27 12:52 | 64.64529 | -17.95358 | 27219 ft | 523 kts | 64° |
| 2026-04-27 12:52 | 64.66101 | -17.87743 | 27714 ft | 519 kts | 64° |
| 2026-04-27 12:53 | 64.69234 | -17.72482 | 28150 ft | 523 kts | 64° |
| 2026-04-27 12:53 | 64.70803 | -17.64800 | 28463 ft | 523 kts | 64° |
| 2026-04-27 12:53 | 64.72358 | -17.57155 | 28867 ft | 521 kts | 64° |
| 2026-04-27 12:54 | 64.73912 | -17.49487 | 29201 ft | 521 kts | 64° |
| 2026-04-27 12:54 | 64.75465 | -17.41791 | 29482 ft | 522 kts | 64° |
| 2026-04-27 12:54 | 64.76999 | -17.34166 | 29774 ft | 522 kts | 64° |
| 2026-04-27 12:54 | 64.78542 | -17.26468 | 30082 ft | 522 kts | 64° |
| 2026-04-27 12:55 | 64.80080 | -17.18763 | 30361 ft | 521 kts | 64° |
| 2026-04-27 12:55 | 64.81613 | -17.11057 | 30653 ft | 520 kts | 65° |
| 2026-04-27 12:55 | 64.83138 | -17.03362 | 30924 ft | 520 kts | 65° |
| 2026-04-27 12:55 | 64.84664 | -16.95634 | 31198 ft | 520 kts | 65° |
| 2026-04-27 12:56 | 64.86178 | -16.87933 | 31472 ft | 519 kts | 65° |
| 2026-04-27 12:56 | 64.87691 | -16.80214 | 31744 ft | 519 kts | 65° |
| 2026-04-27 12:56 | 64.89198 | -16.72492 | 32010 ft | 518 kts | 65° |
| 2026-04-27 12:56 | 64.90696 | -16.64790 | 32285 ft | 518 kts | 65° |
| 2026-04-27 12:57 | 64.92197 | -16.57043 | 32563 ft | 517 kts | 65° |
| 2026-04-27 12:57 | 64.93691 | -16.49306 | 32759 ft | 519 kts | 65° |
| 2026-04-27 12:57 | 64.95167 | -16.41630 | 32906 ft | 521 kts | 65° |
| 2026-04-27 12:57 | 64.96660 | -16.33835 | 33172 ft | 521 kts | 66° |
| 2026-04-27 12:58 | 64.98145 | -16.26048 | 33464 ft | 520 kts | 66° |
| 2026-04-27 12:58 | 64.99626 | -16.18262 | 33727 ft | 519 kts | 66° |
| 2026-04-27 12:58 | 65.01102 | -16.10467 | 33936 ft | 520 kts | 66° |
| 2026-04-27 12:58 | 65.02581 | -16.02626 | 34126 ft | 520 kts | 66° |
| 2026-04-27 12:59 | 65.04056 | -15.94773 | 34361 ft | 519 kts | 66° |
| 2026-04-27 12:59 | 65.05518 | -15.86961 | 34623 ft | 518 kts | 66° |
| 2026-04-27 12:59 | 65.06973 | -15.79160 | 34860 ft | 517 kts | 65° |
| 2026-04-27 12:59 | 65.08419 | -15.71371 | 35036 ft | 516 kts | 64° |
| 2026-04-27 13:00 | 65.11311 | -15.55712 | 35037 ft | 517 kts | 65° |
| 2026-04-27 13:00 | 65.14153 | -15.40194 | 35043 ft | 514 kts | 65° |
| 2026-04-27 13:01 | 65.16988 | -15.24596 | 35055 ft | 513 kts | 65° |
| 2026-04-27 13:01 | 65.19803 | -15.08988 | 35040 ft | 513 kts | 65° |
| 2026-04-27 13:02 | 65.22599 | -14.93357 | 35041 ft | 512 kts | 65° |
| 2026-04-27 13:02 | 65.25375 | -14.77719 | 35033 ft | 512 kts | 65° |
| 2026-04-27 13:03 | 65.28143 | -14.62005 | 35016 ft | 514 kts | 65° |
| 2026-04-27 13:03 | 65.30880 | -14.46341 | 35026 ft | 514 kts | 65° |
| 2026-04-27 13:04 | 65.33626 | -14.30492 | 35016 ft | 515 kts | 65° |
| 2026-04-27 13:04 | 65.36362 | -14.14575 | 35029 ft | 515 kts | 65° |
| 2026-04-27 13:05 | 65.39076 | -13.98652 | 35026 ft | 515 kts | 65° |
| 2026-04-27 13:05 | 65.41747 | -13.82842 | 35054 ft | 513 kts | 65° |
| 2026-04-27 13:06 | 65.44420 | -13.66912 | 35048 ft | 513 kts | 65° |
| 2026-04-27 13:06 | 65.47071 | -13.50974 | 35068 ft | 513 kts | 65° |
| 2026-04-27 13:07 | 65.49706 | -13.34991 | 35072 ft | 513 kts | 65° |
| 2026-04-27 13:07 | 65.52320 | -13.19005 | 35075 ft | 513 kts | 65° |
| 2026-04-27 13:08 | 65.54919 | -13.02978 | 35080 ft | 513 kts | 66° |
| 2026-04-27 13:08 | 65.57499 | -12.86926 | 35094 ft | 513 kts | 66° |
| 2026-04-27 13:09 | 65.60046 | -12.70950 | 35076 ft | 512 kts | 65° |
| 2026-04-27 13:09 | 65.62591 | -12.54843 | 35102 ft | 511 kts | 65° |
| 2026-04-27 13:10 | 65.65110 | -12.38763 | 35097 ft | 511 kts | 66° |
| 2026-04-27 13:10 | 65.67611 | -12.22662 | 35118 ft | 510 kts | 66° |
| 2026-04-27 13:11 | 65.70092 | -12.06544 | 35117 ft | 509 kts | 66° |
| 2026-04-27 13:11 | 65.72554 | -11.90416 | 35128 ft | 509 kts | 65° |
| 2026-04-27 13:12 | 65.74996 | -11.74270 | 35123 ft | 508 kts | 66° |
| 2026-04-27 13:12 | 65.77417 | -11.58119 | 35136 ft | 507 kts | 66° |
| 2026-04-27 13:13 | 65.79820 | -11.41951 | 35153 ft | 507 kts | 66° |
| 2026-04-27 13:13 | 65.82217 | -11.25685 | 35144 ft | 512 kts | 66° |
| 2026-04-27 13:14 | 65.84599 | -11.09363 | 35127 ft | 513 kts | 66° |
| 2026-04-27 13:14 | 65.86950 | -10.93074 | 35164 ft | 506 kts | 66° |
| 2026-04-27 13:15 | 65.89287 | -10.76776 | 35170 ft | 509 kts | 66° |
| 2026-04-27 13:15 | 65.91619 | -10.60364 | 35177 ft | 512 kts | 66° |
| 2026-04-27 13:16 | 65.93943 | -10.43831 | 35175 ft | 514 kts | 66° |
| 2026-04-27 13:16 | 65.96255 | -10.27243 | 35193 ft | 514 kts | 66° |
| 2026-04-27 13:17 | 65.98618 | -10.10689 | 35159 ft | 508 kts | 59° |
| 2026-04-27 13:17 | 66.00473 | -10.03532 | 35188 ft | 489 kts | 41° |
| 2026-04-27 13:17 | 66.02915 | -9.97886 | 35186 ft | 474 kts | 28° |
| 2026-04-27 13:18 | 66.05656 | -9.93887 | 35200 ft | 457 kts | 14° |
| 2026-04-27 13:18 | 66.08590 | -9.90969 | 35203 ft | 453 kts | 13° |
| 2026-04-27 13:18 | 66.14468 | -9.85309 | 35182 ft | 453 kts | 12° |
| 2026-04-27 13:19 | 66.20330 | -9.79569 | 35194 ft | 454 kts | 13° |
| 2026-04-27 13:19 | 66.26197 | -9.73689 | 35208 ft | 455 kts | 13° |
| 2026-04-27 13:20 | 66.32061 | -9.67735 | 35211 ft | 457 kts | 13° |
| 2026-04-27 13:20 | 66.37958 | -9.61710 | 35197 ft | 459 kts | 13° |
| 2026-04-27 13:21 | 66.43885 | -9.55622 | 35196 ft | 461 kts | 13° |
| 2026-04-27 13:21 | 66.49821 | -9.49495 | 35205 ft | 462 kts | 13° |
| 2026-04-27 13:22 | 66.55773 | -9.43320 | 35204 ft | 463 kts | 13° |
| 2026-04-27 13:22 | 66.61689 | -9.37151 | 35236 ft | 463 kts | 13° |
| 2026-04-27 13:23 | 66.67658 | -9.30895 | 35218 ft | 465 kts | 13° |
| 2026-04-27 13:23 | 66.73633 | -9.24600 | 35202 ft | 465 kts | 13° |
| 2026-04-27 13:24 | 66.79611 | -9.18267 | 35204 ft | 466 kts | 13° |
| 2026-04-27 13:24 | 66.85593 | -9.11895 | 35203 ft | 466 kts | 13° |
| 2026-04-27 13:25 | 66.91569 | -9.05498 | 35197 ft | 465 kts | 13° |
| 2026-04-27 13:25 | 66.97526 | -8.99087 | 35258 ft | 464 kts | 13° |
| 2026-04-27 13:26 | 67.03497 | -8.92627 | 35217 ft | 464 kts | 13° |
| 2026-04-27 13:26 | 67.09411 | -8.86195 | 35204 ft | 464 kts | 14° |
| 2026-04-27 13:27 | 67.15365 | -8.79684 | 35206 ft | 463 kts | 14° |
| 2026-04-27 13:27 | 67.21291 | -8.73168 | 35218 ft | 463 kts | 14° |
| 2026-04-27 13:28 | 67.27214 | -8.66623 | 35215 ft | 462 kts | 14° |
| 2026-04-27 13:28 | 67.33126 | -8.60054 | 35235 ft | 463 kts | 14° |
| 2026-04-27 13:29 | 67.39026 | -8.53465 | 35228 ft | 464 kts | 14° |
| 2026-04-27 13:29 | 67.44001 | -8.47881 | 35233 ft | 466 kts | 14° |
| 2026-04-27 13:30 | 67.49926 | -8.41194 | 35232 ft | 467 kts | 14° |
| 2026-04-27 13:30 | 67.55898 | -8.34417 | 35251 ft | 468 kts | 14° |
| 2026-04-27 13:31 | 67.61875 | -8.27595 | 35232 ft | 468 kts | 14° |
| 2026-04-27 13:31 | 67.67837 | -8.20749 | 35241 ft | 467 kts | 14° |
| 2026-04-27 13:32 | 67.73787 | -8.13881 | 35239 ft | 466 kts | 14° |
| 2026-04-27 13:32 | 67.79689 | -8.07034 | 35242 ft | 465 kts | 14° |
| 2026-04-27 13:33 | 67.85610 | -8.00128 | 35240 ft | 464 kts | 14° |
| 2026-04-27 13:33 | 67.91522 | -7.93193 | 35255 ft | 464 kts | 14° |
| 2026-04-27 13:34 | 67.97420 | -7.86236 | 35255 ft | 463 kts | 14° |
| 2026-04-27 13:34 | 68.03324 | -7.79234 | 35262 ft | 464 kts | 14° |
| 2026-04-27 13:35 | 68.09233 | -7.72188 | 35263 ft | 465 kts | 14° |
| 2026-04-27 13:35 | 68.15107 | -7.65144 | 35258 ft | 466 kts | 14° |
| 2026-04-27 13:36 | 68.21040 | -7.57985 | 35270 ft | 467 kts | 14° |
| 2026-04-27 13:36 | 68.26966 | -7.50791 | 35265 ft | 467 kts | 14° |
| 2026-04-27 13:37 | 68.32879 | -7.43572 | 35265 ft | 466 kts | 14° |
| 2026-04-27 13:37 | 68.38786 | -7.36323 | 35290 ft | 466 kts | 14° |
| 2026-04-27 13:38 | 68.44705 | -7.29020 | 35280 ft | 467 kts | 14° |
| 2026-04-27 13:38 | 68.50625 | -7.21670 | 35293 ft | 467 kts | 14° |
| 2026-04-27 13:39 | 68.56500 | -7.14332 | 35276 ft | 467 kts | 14° |
| 2026-04-27 13:39 | 68.62415 | -7.06903 | 35280 ft | 468 kts | 14° |
| 2026-04-27 13:40 | 68.68331 | -6.99429 | 35301 ft | 468 kts | 14° |
| 2026-04-27 13:40 | 68.74255 | -6.91905 | 35308 ft | 469 kts | 15° |
| 2026-04-27 13:41 | 68.80187 | -6.84324 | 35302 ft | 470 kts | 16° |
| 2026-04-27 13:41 | 68.86118 | -6.76695 | 35297 ft | 470 kts | 16° |
| 2026-04-27 13:42 | 68.92045 | -6.69027 | 35309 ft | 470 kts | 16° |
| 2026-04-27 13:42 | 68.97961 | -6.61327 | 35309 ft | 469 kts | 16° |
| 2026-04-27 13:43 | 69.03843 | -6.53628 | 35306 ft | 469 kts | 16° |
| 2026-04-27 13:43 | 69.09751 | -6.45852 | 35330 ft | 470 kts | 17° |
| 2026-04-27 13:44 | 69.15660 | -6.38027 | 35329 ft | 470 kts | 17° |
| 2026-04-27 13:44 | 69.21569 | -6.30150 | 35325 ft | 470 kts | 18° |
| 2026-04-27 13:45 | 69.27483 | -6.22220 | 35317 ft | 471 kts | 18° |
| 2026-04-27 13:45 | 69.33398 | -6.14240 | 35320 ft | 471 kts | 18° |
| 2026-04-27 13:46 | 69.39312 | -6.06213 | 35348 ft | 471 kts | 18° |
| 2026-04-27 13:46 | 69.45215 | -5.98152 | 35347 ft | 470 kts | 19° |
| 2026-04-27 13:47 | 69.51064 | -5.90116 | 35335 ft | 469 kts | 20° |
| 2026-04-27 13:47 | 69.56945 | -5.81985 | 35330 ft | 469 kts | 20° |
| 2026-04-27 13:48 | 69.62802 | -5.73839 | 35343 ft | 468 kts | 20° |
| 2026-04-27 13:48 | 69.68654 | -5.65649 | 35346 ft | 467 kts | 20° |
| 2026-04-27 13:49 | 69.74496 | -5.57424 | 35349 ft | 467 kts | 20° |
| 2026-04-27 13:49 | 69.80335 | -5.49153 | 35358 ft | 468 kts | 20° |
| 2026-04-27 13:50 | 69.86185 | -5.40815 | 35380 ft | 469 kts | 20° |
| 2026-04-27 13:50 | 69.92050 | -5.32403 | 35375 ft | 470 kts | 20° |
| 2026-04-27 13:51 | 69.97920 | -5.23930 | 35391 ft | 472 kts | 20° |
| 2026-04-27 13:51 | 70.03780 | -5.15416 | 35386 ft | 473 kts | 20° |
| 2026-04-27 13:52 | 70.09682 | -5.06786 | 35385 ft | 474 kts | 20° |
| 2026-04-27 13:52 | 70.15573 | -4.98115 | 35420 ft | 474 kts | 21° |
| 2026-04-27 13:53 | 70.24406 | -4.85012 | 35390 ft | 473 kts | 21° |
| 2026-04-27 13:54 | 70.30270 | -4.76243 | 35396 ft | 471 kts | 21° |
| 2026-04-27 13:54 | 70.36086 | -4.67489 | 35408 ft | 470 kts | 21° |
| 2026-04-27 13:55 | 70.41911 | -4.58666 | 35411 ft | 469 kts | 21° |
| 2026-04-27 13:55 | 70.47722 | -4.49808 | 35416 ft | 468 kts | 21° |
| 2026-04-27 13:56 | 70.53514 | -4.40924 | 35420 ft | 468 kts | 21° |
| 2026-04-27 13:56 | 70.59314 | -4.31969 | 35452 ft | 468 kts | 21° |
| 2026-04-27 13:57 | 70.65090 | -4.22990 | 35425 ft | 467 kts | 22° |
| 2026-04-27 13:57 | 70.70861 | -4.13961 | 35433 ft | 467 kts | 22° |
| 2026-04-27 13:58 | 70.76619 | -4.04893 | 35433 ft | 466 kts | 22° |
| 2026-04-27 13:58 | 70.82372 | -3.95775 | 35445 ft | 466 kts | 22° |
| 2026-04-27 13:59 | 70.88111 | -3.86621 | 35465 ft | 466 kts | 22° |
| 2026-04-27 13:59 | 70.93854 | -3.77399 | 35457 ft | 466 kts | 22° |
| 2026-04-27 14:00 | 70.99564 | -3.68168 | 35457 ft | 467 kts | 22° |
| 2026-04-27 14:00 | 71.05303 | -3.58827 | 35460 ft | 467 kts | 22° |
| 2026-04-27 14:01 | 71.11048 | -3.49417 | 35469 ft | 467 kts | 22° |
| 2026-04-27 14:01 | 71.16791 | -3.39948 | 35468 ft | 468 kts | 23° |
| 2026-04-27 14:02 | 71.22539 | -3.30403 | 35476 ft | 467 kts | 23° |
| 2026-04-27 14:02 | 71.28271 | -3.20820 | 35471 ft | 466 kts | 23° |
| 2026-04-27 14:03 | 71.33965 | -3.11237 | 35480 ft | 465 kts | 23° |
| 2026-04-27 14:03 | 71.39645 | -3.01613 | 35481 ft | 464 kts | 23° |
| 2026-04-27 14:04 | 71.45279 | -2.92004 | 35483 ft | 463 kts | 23° |
| 2026-04-27 14:04 | 71.50929 | -2.82304 | 35482 ft | 462 kts | 23° |
| 2026-04-27 14:05 | 71.56572 | -2.72550 | 35505 ft | 462 kts | 24° |
| 2026-04-27 14:05 | 71.62208 | -2.62739 | 35498 ft | 462 kts | 24° |
| 2026-04-27 14:06 | 71.67842 | -2.52865 | 35493 ft | 462 kts | 24° |
| 2026-04-27 14:06 | 71.73468 | -2.42939 | 35489 ft | 462 kts | 24° |
| 2026-04-27 14:07 | 71.79085 | -2.32959 | 35500 ft | 462 kts | 24° |
| 2026-04-27 14:07 | 71.84687 | -2.22938 | 35503 ft | 461 kts | 24° |
| 2026-04-27 14:08 | 71.90239 | -2.12934 | 35530 ft | 460 kts | 24° |
| 2026-04-27 14:08 | 71.95821 | -2.02811 | 35514 ft | 460 kts | 24° |
| 2026-04-27 14:09 | 72.01401 | -1.92620 | 35506 ft | 459 kts | 24° |
| 2026-04-27 14:09 | 72.06955 | -1.82405 | 35506 ft | 459 kts | 24° |
| 2026-04-27 14:10 | 72.12466 | -1.72200 | 35517 ft | 458 kts | 24° |
| 2026-04-27 14:10 | 72.17999 | -1.61883 | 35517 ft | 458 kts | 25° |
| 2026-04-27 14:11 | 72.23533 | -1.51491 | 35518 ft | 458 kts | 25° |
| 2026-04-27 14:11 | 72.29062 | -1.41037 | 35524 ft | 459 kts | 25° |
| 2026-04-27 14:12 | 72.34593 | -1.30502 | 35526 ft | 459 kts | 25° |
| 2026-04-27 14:12 | 72.40127 | -1.19888 | 35520 ft | 460 kts | 25° |
| 2026-04-27 14:13 | 72.45632 | -1.09255 | 35519 ft | 460 kts | 25° |
| 2026-04-27 14:13 | 72.51162 | -0.98496 | 35521 ft | 460 kts | 25° |
| 2026-04-27 14:14 | 72.55755 | -0.89501 | 35519 ft | 461 kts | 25° |
| 2026-04-27 14:14 | 72.61292 | -0.78585 | 35546 ft | 461 kts | 25° |
| 2026-04-27 14:15 | 72.66819 | -0.67610 | 35531 ft | 462 kts | 25° |
| 2026-04-27 14:15 | 72.72343 | -0.56562 | 35530 ft | 462 kts | 25° |
| 2026-04-27 14:16 | 72.77831 | -0.45502 | 35526 ft | 462 kts | 26° |
| 2026-04-27 14:16 | 72.83343 | -0.34316 | 35529 ft | 462 kts | 26° |
| 2026-04-27 14:17 | 72.88845 | -0.23065 | 35528 ft | 462 kts | 26° |
| 2026-04-27 14:17 | 72.94347 | -0.11736 | 35528 ft | 462 kts | 26° |
| 2026-04-27 14:18 | 72.99843 | -0.00349 | 35552 ft | 462 kts | 25° |
| 2026-04-27 14:18 | 73.05456 | 0.10202 | 35536 ft | 458 kts | 21° |
| 2026-04-27 14:19 | 73.11086 | 0.20082 | 35523 ft | 457 kts | 21° |
| 2026-04-27 14:19 | 73.16736 | 0.30089 | 35525 ft | 456 kts | 22° |
| 2026-04-27 14:20 | 73.22362 | 0.40253 | 35539 ft | 456 kts | 22° |
| 2026-04-27 14:20 | 73.27966 | 0.50522 | 35525 ft | 455 kts | 22° |
| 2026-04-27 14:21 | 73.33577 | 0.60893 | 35528 ft | 456 kts | 22° |
| 2026-04-27 14:21 | 73.39173 | 0.71313 | 35530 ft | 456 kts | 22° |
| 2026-04-27 14:22 | 73.44745 | 0.81763 | 35526 ft | 456 kts | 22° |
| 2026-04-27 14:22 | 73.50348 | 0.92350 | 35527 ft | 457 kts | 22° |
| 2026-04-27 14:23 | 73.55955 | 1.03024 | 35526 ft | 458 kts | 22° |
| 2026-04-27 14:23 | 73.61561 | 1.13779 | 35520 ft | 458 kts | 22° |
| 2026-04-27 14:24 | 73.67171 | 1.24622 | 35537 ft | 459 kts | 22° |
| 2026-04-27 14:24 | 73.72752 | 1.35491 | 35537 ft | 459 kts | 22° |
| 2026-04-27 14:25 | 73.78360 | 1.46503 | 35523 ft | 458 kts | 22° |
| 2026-04-27 14:25 | 73.83938 | 1.57542 | 35517 ft | 457 kts | 23° |
| 2026-04-27 14:26 | 73.89472 | 1.68574 | 35513 ft | 456 kts | 23° |
| 2026-04-27 14:26 | 73.95014 | 1.79706 | 35515 ft | 455 kts | 23° |
| 2026-04-27 14:27 | 74.00545 | 1.90905 | 35553 ft | 455 kts | 23° |
| 2026-04-27 14:27 | 74.06074 | 2.02182 | 35526 ft | 455 kts | 23° |
| 2026-04-27 14:28 | 74.11594 | 2.13535 | 35512 ft | 455 kts | 23° |
| 2026-04-27 14:28 | 74.17106 | 2.24959 | 35506 ft | 455 kts | 23° |
| 2026-04-27 14:29 | 74.22614 | 2.36465 | 35506 ft | 456 kts | 23° |
| 2026-04-27 14:29 | 74.28123 | 2.48064 | 35512 ft | 456 kts | 24° |
| 2026-04-27 14:30 | 74.33600 | 2.59687 | 35509 ft | 456 kts | 24° |
| 2026-04-27 14:30 | 74.39110 | 2.71474 | 35516 ft | 458 kts | 24° |
| 2026-04-27 14:31 | 74.44634 | 2.83387 | 35504 ft | 458 kts | 24° |
| 2026-04-27 14:31 | 74.50137 | 2.95356 | 35494 ft | 457 kts | 24° |
| 2026-04-27 14:32 | 74.55635 | 3.07409 | 35495 ft | 457 kts | 24° |
| 2026-04-27 14:32 | 74.61080 | 3.19442 | 35495 ft | 456 kts | 24° |
| 2026-04-27 14:33 | 74.66545 | 3.31615 | 35495 ft | 456 kts | 24° |
| 2026-04-27 14:33 | 74.71996 | 3.43858 | 35488 ft | 455 kts | 24° |
| 2026-04-27 14:34 | 74.77439 | 3.56182 | 35482 ft | 455 kts | 25° |
| 2026-04-27 14:34 | 74.82848 | 3.68531 | 35483 ft | 455 kts | 25° |
| 2026-04-27 14:35 | 74.88272 | 3.81017 | 35485 ft | 455 kts | 25° |
| 2026-04-27 14:35 | 74.93699 | 3.93611 | 35485 ft | 455 kts | 25° |
| 2026-04-27 14:36 | 74.99114 | 4.06285 | 35474 ft | 455 kts | 25° |
| 2026-04-27 14:36 | 75.04530 | 4.19066 | 35493 ft | 456 kts | 25° |
| 2026-04-27 14:37 | 75.09957 | 4.31981 | 35504 ft | 457 kts | 26° |
| 2026-04-27 14:37 | 75.15372 | 4.44980 | 35479 ft | 458 kts | 26° |
| 2026-04-27 14:38 | 75.20790 | 4.58098 | 35471 ft | 457 kts | 26° |
| 2026-04-27 14:38 | 75.26195 | 4.71295 | 35464 ft | 457 kts | 26° |
| 2026-04-27 14:39 | 75.31589 | 4.84578 | 35460 ft | 457 kts | 26° |
| 2026-04-27 14:39 | 75.36934 | 4.97851 | 35461 ft | 456 kts | 26° |
| 2026-04-27 14:40 | 75.42310 | 5.11318 | 35460 ft | 457 kts | 27° |
| 2026-04-27 14:40 | 75.47691 | 5.24914 | 35457 ft | 457 kts | 27° |
| 2026-04-27 14:41 | 75.53052 | 5.38579 | 35452 ft | 457 kts | 27° |
| 2026-04-27 14:41 | 75.58407 | 5.52348 | 35440 ft | 457 kts | 27° |
| 2026-04-27 14:42 | 75.63729 | 5.66151 | 35446 ft | 457 kts | 27° |
| 2026-04-27 14:42 | 75.69075 | 5.80141 | 35444 ft | 458 kts | 27° |
| 2026-04-27 14:43 | 75.74418 | 5.94246 | 35450 ft | 459 kts | 28° |
| 2026-04-27 14:43 | 75.79760 | 6.08472 | 35450 ft | 459 kts | 28° |
| 2026-04-27 14:44 | 75.85111 | 6.22856 | 35435 ft | 460 kts | 28° |
| 2026-04-27 14:44 | 75.90414 | 6.37238 | 35427 ft | 460 kts | 28° |
| 2026-04-27 14:45 | 75.95745 | 6.51828 | 35426 ft | 460 kts | 28° |
| 2026-04-27 14:45 | 76.01077 | 6.66553 | 35425 ft | 460 kts | 29° |
| 2026-04-27 14:46 | 76.06389 | 6.81356 | 35446 ft | 460 kts | 29° |
| 2026-04-27 14:46 | 76.11668 | 6.96201 | 35425 ft | 461 kts | 29° |
| 2026-04-27 14:47 | 76.16978 | 7.11271 | 35411 ft | 462 kts | 30° |
| 2026-04-27 14:47 | 76.22285 | 7.26477 | 35411 ft | 462 kts | 30° |
| 2026-04-27 14:48 | 76.27582 | 7.41796 | 35422 ft | 462 kts | 30° |
| 2026-04-27 14:48 | 76.35517 | 7.65010 | 35409 ft | 463 kts | 30° |
| 2026-04-27 14:49 | 76.40796 | 7.80637 | 35403 ft | 463 kts | 30° |
| 2026-04-27 14:49 | 76.46085 | 7.96444 | 35418 ft | 464 kts | 31° |
| 2026-04-27 14:50 | 76.51367 | 8.12381 | 35400 ft | 465 kts | 31° |
| 2026-04-27 14:50 | 76.56611 | 8.28356 | 35387 ft | 465 kts | 31° |
| 2026-04-27 14:51 | 76.61874 | 8.44546 | 35376 ft | 465 kts | 31° |
| 2026-04-27 14:51 | 76.66250 | 8.58127 | 35375 ft | 465 kts | 31° |
| 2026-04-27 14:52 | 76.72381 | 8.77337 | 35396 ft | 465 kts | 32° |
| 2026-04-27 14:52 | 76.77621 | 8.93932 | 35381 ft | 465 kts | 32° |
| 2026-04-27 14:53 | 76.82851 | 9.10662 | 35375 ft | 466 kts | 32° |
| 2026-04-27 14:53 | 76.88076 | 9.27538 | 35361 ft | 466 kts | 32° |
| 2026-04-27 14:54 | 76.93295 | 9.44568 | 35356 ft | 466 kts | 32° |
| 2026-04-27 14:54 | 76.98503 | 9.61727 | 35356 ft | 466 kts | 33° |
| 2026-04-27 14:55 | 77.03697 | 9.79014 | 35356 ft | 467 kts | 33° |
| 2026-04-27 14:55 | 77.08893 | 9.96484 | 35354 ft | 467 kts | 33° |
| 2026-04-27 14:56 | 77.14054 | 10.14014 | 35351 ft | 468 kts | 34° |
| 2026-04-27 14:56 | 77.19234 | 10.31789 | 35332 ft | 468 kts | 34° |
| 2026-04-27 14:57 | 77.24405 | 10.49717 | 35336 ft | 468 kts | 34° |
| 2026-04-27 14:57 | 77.28700 | 10.64747 | 35333 ft | 468 kts | 34° |
| 2026-04-27 14:58 | 77.33833 | 10.82887 | 35315 ft | 461 kts | 34° |
| 2026-04-27 14:58 | 77.36314 | 10.91739 | 35311 ft | 445 kts | 34° |
| 2026-04-27 14:58 | 77.38715 | 11.00353 | 35314 ft | 431 kts | 34° |
| 2026-04-27 14:59 | 77.41040 | 11.08727 | 35295 ft | 418 kts | 34° |
| 2026-04-27 14:59 | 77.43288 | 11.16855 | 35304 ft | 404 kts | 34° |
| 2026-04-27 14:59 | 77.45462 | 11.24749 | 35293 ft | 391 kts | 34° |
| 2026-04-27 14:59 | 77.47578 | 11.32457 | 35319 ft | 387 kts | 34° |
| 2026-04-27 15:00 | 77.51863 | 11.48123 | 35346 ft | 399 kts | 34° |
| 2026-04-27 15:00 | 77.56245 | 11.64308 | 35341 ft | 410 kts | 35° |
| 2026-04-27 15:01 | 77.60705 | 11.80970 | 35327 ft | 413 kts | 35° |
| 2026-04-27 15:01 | 77.65133 | 11.97696 | 35283 ft | 404 kts | 35° |
| 2026-04-27 15:02 | 77.69476 | 12.14236 | 35325 ft | 402 kts | 36° |
| 2026-04-27 15:02 | 77.73827 | 12.30944 | 35315 ft | 405 kts | 36° |
| 2026-04-27 15:03 | 77.78196 | 12.47883 | 35319 ft | 407 kts | 37° |
| 2026-04-27 15:03 | 77.82551 | 12.64930 | 35306 ft | 409 kts | 37° |
| 2026-04-27 15:04 | 77.86947 | 12.82303 | 35310 ft | 411 kts | 37° |
| 2026-04-27 15:04 | 77.91334 | 12.99813 | 35287 ft | 411 kts | 37° |
| 2026-04-27 15:05 | 77.95716 | 13.17468 | 35290 ft | 411 kts | 37° |
| 2026-04-27 15:05 | 78.00072 | 13.35191 | 35286 ft | 410 kts | 37° |
| 2026-04-27 15:06 | 78.04412 | 13.52999 | 35287 ft | 409 kts | 38° |
| 2026-04-27 15:06 | 78.08694 | 13.70740 | 35288 ft | 407 kts | 38° |
| 2026-04-27 15:07 | 78.12979 | 13.88577 | 35284 ft | 405 kts | 38° |
| 2026-04-27 15:07 | 78.15840 | 14.00533 | 35272 ft | 404 kts | 38° |
| 2026-04-27 15:08 | 78.19963 | 14.30483 | 35292 ft | 411 kts | 71° |
| 2026-04-27 15:08 | 78.21240 | 14.57861 | 35275 ft | 412 kts | 76° |
| 2026-04-27 15:09 | 78.23158 | 14.99946 | 34540 ft | 418 kts | 75° |
| 2026-04-27 15:09 | 78.23858 | 15.15223 | 34007 ft | 412 kts | 75° |
| 2026-04-27 15:10 | 78.24478 | 15.28927 | 33188 ft | 413 kts | 75° |
| 2026-04-27 15:10 | 78.25124 | 15.42725 | 32438 ft | 413 kts | 71° |
| 2026-04-27 15:10 | 78.26309 | 15.55367 | 31651 ft | 406 kts | 50° |
| 2026-04-27 15:10 | 78.28093 | 15.64684 | 31007 ft | 398 kts | 34° |
| 2026-04-27 15:11 | 78.30445 | 15.71558 | 30289 ft | 392 kts | 19° |
| 2026-04-27 15:11 | 78.33034 | 15.75386 | 29406 ft | 386 kts | 4° |
| 2026-04-27 15:11 | 78.35663 | 15.75852 | 28578 ft | 381 kts | 354° |
| 2026-04-27 15:11 | 78.38227 | 15.73242 | 27700 ft | 375 kts | 335° |
| 2026-04-27 15:12 | 78.40457 | 15.66815 | 26923 ft | 370 kts | 320° |
| 2026-04-27 15:12 | 78.42332 | 15.58153 | 26146 ft | 367 kts | 310° |
| 2026-04-27 15:12 | 78.43792 | 15.47790 | 25369 ft | 365 kts | 296° |
| 2026-04-27 15:12 | 78.44693 | 15.36438 | 24671 ft | 363 kts | 288° |
| 2026-04-27 15:13 | 78.45477 | 15.24252 | 23926 ft | 362 kts | 287° |
| 2026-04-27 15:13 | 78.46199 | 15.12307 | 23067 ft | 360 kts | 286° |
| 2026-04-27 15:13 | 78.46571 | 14.99958 | 22187 ft | 360 kts | 270° |
| 2026-04-27 15:13 | 78.46188 | 14.87650 | 21372 ft | 360 kts | 256° |
| 2026-04-27 15:14 | 78.45217 | 14.76132 | 20568 ft | 361 kts | 242° |
| 2026-04-27 15:14 | 78.43708 | 14.66161 | 19782 ft | 363 kts | 227° |
| 2026-04-27 15:14 | 78.41699 | 14.58497 | 19016 ft | 365 kts | 211° |
| 2026-04-27 15:14 | 78.39323 | 14.53933 | 18224 ft | 368 kts | 195° |
| 2026-04-27 15:15 | 78.36807 | 14.52880 | 17384 ft | 370 kts | 178° |
| 2026-04-27 15:15 | 78.34290 | 14.55378 | 16559 ft | 370 kts | 161° |
| 2026-04-27 15:15 | 78.32006 | 14.61254 | 15755 ft | 370 kts | 144° |
| 2026-04-27 15:15 | 78.30126 | 14.69842 | 14960 ft | 367 kts | 130° |
| 2026-04-27 15:16 | 78.28713 | 14.80217 | 14193 ft | 365 kts | 115° |
| 2026-04-27 15:16 | 78.27848 | 14.91847 | 13371 ft | 360 kts | 105° |
| 2026-04-27 15:16 | 78.27165 | 15.03624 | 12565 ft | 357 kts | 104° |
| 2026-04-27 15:16 | 78.26494 | 15.15312 | 11750 ft | 354 kts | 105° |
| 2026-04-27 15:17 | 78.25800 | 15.26861 | 10957 ft | 350 kts | 106° |
| 2026-04-27 15:17 | 78.25094 | 15.38234 | 10179 ft | 347 kts | 106° |
| 2026-04-27 15:17 | 78.24625 | 15.49552 | 9314 ft | 342 kts | 88° |
| 2026-04-27 15:17 | 78.25192 | 15.60779 | 8472 ft | 334 kts | 59° |
| 2026-04-27 15:18 | 78.26693 | 15.68917 | 7699 ft | 325 kts | 31° |
| 2026-04-27 15:18 | 78.28786 | 15.72522 | 6918 ft | 319 kts | 3° |
| 2026-04-27 15:18 | 78.30934 | 15.70662 | 6103 ft | 315 kts | 334° |
| 2026-04-27 15:18 | 78.32563 | 15.63783 | 5515 ft | 308 kts | 303° |
| 2026-04-27 15:19 | 78.33181 | 15.54105 | 5318 ft | 291 kts | 272° |
| 2026-04-27 15:19 | 78.32920 | 15.44486 | 5224 ft | 271 kts | 268° |
| 2026-04-27 15:19 | 78.33184 | 15.35754 | 5206 ft | 247 kts | 288° |
| 2026-04-27 15:19 | 78.33655 | 15.27825 | 5173 ft | 234 kts | 288° |
| 2026-04-27 15:20 | 78.34112 | 15.20106 | 5192 ft | 234 kts | 288° |
| 2026-04-27 15:20 | 78.34476 | 15.12276 | 5176 ft | 235 kts | 272° |
| 2026-04-27 15:20 | 78.34160 | 15.04382 | 5196 ft | 237 kts | 248° |
| 2026-04-27 15:20 | 78.33209 | 14.97702 | 5165 ft | 241 kts | 223° |
| 2026-04-27 15:21 | 78.31758 | 14.93612 | 5173 ft | 243 kts | 197° |
| 2026-04-27 15:21 | 78.30080 | 14.93093 | 5181 ft | 244 kts | 169° |
| 2026-04-27 15:21 | 78.28551 | 14.96325 | 5162 ft | 245 kts | 141° |
| 2026-04-27 15:21 | 78.27423 | 15.02497 | 5194 ft | 244 kts | 117° |
| 2026-04-27 15:22 | 78.26806 | 15.10248 | 5204 ft | 243 kts | 109° |
| 2026-04-27 15:22 | 78.25886 | 15.16582 | 5187 ft | 246 kts | 145° |
| 2026-04-27 15:22 | 78.24292 | 15.19144 | 5216 ft | 245 kts | 184° |
| 2026-04-27 15:22 | 78.22613 | 15.17937 | 5228 ft | 246 kts | 183° |
| 2026-04-27 15:23 | 78.20911 | 15.18949 | 5245 ft | 247 kts | 170° |
| 2026-04-27 15:23 | 78.19198 | 15.20355 | 5239 ft | 250 kts | 172° |
| 2026-04-27 15:23 | 78.17472 | 15.21683 | 5216 ft | 252 kts | 172° |
| 2026-04-27 15:23 | 78.15744 | 15.22993 | 5217 ft | 252 kts | 172° |
| 2026-04-27 15:24 | 78.13970 | 15.24327 | 5371 ft | 264 kts | 172° |
| 2026-04-27 15:24 | 78.12758 | 15.25234 | 5472 ft | 266 kts | 172° |
| 2026-04-27 15:24 | 78.11542 | 15.26141 | 5626 ft | 270 kts | 172° |
| 2026-04-27 15:24 | 78.09051 | 15.28186 | 5862 ft | 271 kts | 163° |
| 2026-04-27 15:25 | 78.06489 | 15.43777 | 6141 ft | 266 kts | 101° |
| 2026-04-27 15:25 | 78.06230 | 15.49559 | 6140 ft | 259 kts | 99° |
| 2026-04-27 15:25 | 78.05896 | 15.57898 | 6099 ft | 251 kts | 99° |
| 2026-04-27 15:26 | 78.05575 | 15.66014 | 6073 ft | 242 kts | 99° |
| 2026-04-27 15:26 | 78.05158 | 15.76304 | 6031 ft | 228 kts | 99° |
| 2026-04-27 15:26 | 78.05053 | 15.78822 | 6017 ft | 226 kts | 99° |
| 2026-04-27 15:26 | 78.04642 | 15.88622 | 5984 ft | 223 kts | 99° |
| 2026-04-27 15:27 | 78.04225 | 15.98377 | 5972 ft | 221 kts | 99° |
| 2026-04-27 15:27 | 78.03908 | 16.05656 | 5982 ft | 223 kts | 100° |
| 2026-04-27 15:27 | 78.03584 | 16.13014 | 6008 ft | 225 kts | 100° |
| 2026-04-27 15:27 | 78.03264 | 16.20273 | 5984 ft | 224 kts | 100° |
| 2026-04-27 15:28 | 78.02938 | 16.27583 | 5988 ft | 222 kts | 100° |
| 2026-04-27 15:28 | 78.02608 | 16.34854 | 5989 ft | 222 kts | 100° |
| 2026-04-27 15:28 | 78.02277 | 16.42094 | 5990 ft | 221 kts | 100° |
| 2026-04-27 15:28 | 78.01944 | 16.49348 | 6013 ft | 223 kts | 100° |
| 2026-04-27 15:29 | 78.01755 | 16.56723 | 5961 ft | 222 kts | 78° |
| 2026-04-27 15:29 | 78.02403 | 16.63167 | 5961 ft | 214 kts | 41° |
| 2026-04-27 15:29 | 78.03647 | 16.66896 | 5986 ft | 212 kts | 17° |
| 2026-04-27 15:29 | 78.05085 | 16.68488 | 6002 ft | 213 kts | 10° |
| 2026-04-27 15:30 | 78.06541 | 16.69905 | 5982 ft | 214 kts | 10° |
| 2026-04-27 15:30 | 78.07996 | 16.71340 | 5974 ft | 212 kts | 10° |
| 2026-04-27 15:30 | 78.08962 | 16.72120 | 5820 ft | 216 kts | 1° |
| 2026-04-27 15:30 | 78.10403 | 16.69723 | 5269 ft | 228 kts | 316° |
| 2026-04-27 15:31 | 78.11172 | 16.63221 | 5170 ft | 220 kts | 293° |
| 2026-04-27 15:31 | 78.11329 | 16.61383 | 5132 ft | 218 kts | 295° |